Time;durP1;ratioP1;P1;durP2;ratioP2;P2;SDS_P1;SDS_P2;PMS_P1;PMS_P2;Temp;Humidity;BMP_temperature;BMP_pressure;BME280_temperature;BME280_humidity;BME280_pressure;Samples;Min_cycle;Max_cycle;Signal;HPM_P1;HPM_P2
2023/01/06 00:02:08;;;;;;;;;;;9.70;99.90;;;;;;5088399;28;20611;-73
2023/01/06 00:04:34;;;;;;;;;;;9.70;99.90;;;;;;5088825;28;19908;-73
2023/01/06 00:06:59;;;;;;;;;;;9.70;99.90;;;;;;5088965;28;19912;-73
2023/01/06 00:09:25;;;;;;;;;;;9.60;99.90;;;;;;5077045;28;19912;-73
2023/01/06 00:11:50;;;;;;;;;;;9.70;99.90;;;;;;5068132;28;20003;-73
2023/01/06 00:14:16;;;;;;;;;;;9.70;99.90;;;;;;5067982;28;20370;-73
2023/01/06 00:16:41;;;;;;;;;;;9.70;99.90;;;;;;5067486;28;20012;-73
2023/01/06 00:19:09;;;;;;;;;;;9.60;99.90;;;;;;5067848;28;20023;-73
2023/01/06 00:21:34;;;;;;;;;;;9.70;99.90;;;;;;5066117;28;19939;-73
2023/01/06 00:24:00;;;;;;;;;;;9.60;99.90;;;;;;5068002;28;20281;-73
2023/01/06 00:26:25;;;;;;;;;;;9.60;99.90;;;;;;5066783;28;19908;-73
2023/01/06 00:28:55;;;;;;;;;;;9.60;99.90;;;;;;5069728;28;19943;-73
2023/01/06 00:31:21;;;;;;;;;;;9.60;99.90;;;;;;5067312;28;19909;-73
2023/01/06 00:33:46;;;;;;;;;;;9.60;99.90;;;;;;5067651;28;19919;-73
2023/01/06 00:36:14;;;;;;;;;;;9.60;99.90;;;;;;5067178;28;20010;-73
2023/01/06 00:38:40;;;;;;;;;;;9.60;99.90;;;;;;5072609;28;20397;-73
2023/01/06 00:42:02;;;;;;;;;;;9.60;99.90;;;;;;5087113;28;19919;-73
2023/01/06 00:43:52;;;;;;;;;;;9.60;99.90;;;;;;5087526;28;19923;-73
2023/01/06 00:46:18;;;;;;;;;;;9.60;99.90;;;;;;5076869;28;20432;-73
2023/01/06 00:48:43;;;;;;;;;;;9.60;99.90;;;;;;5067224;28;19916;-73
2023/01/06 00:51:09;;;;;;;;;;;9.60;99.90;;;;;;5066456;28;19913;-73
2023/01/06 00:53:34;;;;;;;;;;;9.60;99.90;;;;;;5066233;28;19913;-73
2023/01/06 00:56:00;;;;;;;;;;;9.60;99.90;;;;;;5067042;28;19913;-73
2023/01/06 00:58:28;;;;;;;;;;;9.60;99.90;;;;;;5067103;28;19917;-73
2023/01/06 01:00:54;;;;;;;;;;;9.60;99.90;;;;;;5066641;28;20293;-73
2023/01/06 01:03:19;;;;;;;;;;;9.60;99.90;;;;;;5066831;28;19916;-73
2023/01/06 01:05:45;;;;;;;;;;;9.60;99.90;;;;;;5066548;28;19908;-73
2023/01/06 01:08:10;;;;;;;;;;;9.60;99.90;;;;;;5066208;28;19912;-73
2023/01/06 01:10:36;;;;;;;;;;;9.60;99.90;;;;;;5064795;28;19913;-73
2023/01/06 01:13:01;;;;;;;;;;;9.60;99.90;;;;;;5066691;28;20045;-72
2023/01/06 01:15:26;;;;;;;;;;;9.60;99.90;;;;;;5066722;28;19916;-72
2023/01/06 01:17:52;;;;;;;;;;;9.60;99.90;;;;;;5067124;28;19912;-73
2023/01/06 01:20:17;;;;;;;;;;;9.60;99.90;;;;;;5065521;28;19913;-73
2023/01/06 01:22:43;;;;;;;;;;;9.60;99.90;;;;;;5066776;28;19924;-73
2023/01/06 01:25:08;;;;;;;;;;;9.60;99.90;;;;;;5066649;28;19982;-73
2023/01/06 01:27:34;;;;;;;;;;;9.60;99.90;;;;;;5066428;28;19913;-72
2023/01/06 01:29:59;;;;;;;;;;;9.60;99.90;;;;;;5066358;28;19913;-73
2023/01/06 01:32:25;;;;;;;;;;;9.60;99.90;;;;;;5066328;28;19915;-73
2023/01/06 01:34:50;;;;;;;;;;;9.60;99.90;;;;;;5067014;28;19912;-73
2023/01/06 01:37:16;;;;;;;;;;;9.60;99.90;;;;;;5065184;28;20285;-73
2023/01/06 01:39:41;;;;;;;;;;;9.60;99.90;;;;;;5080552;28;19912;-73
2023/01/06 01:42:12;;;;;;;;;;;9.50;99.90;;;;;;5086746;28;20304;-73
2023/01/06 01:44:46;;;;;;;;;;;9.60;99.90;;;;;;5086907;28;19912;-73
2023/01/06 01:47:14;;;;;;;;;;;9.60;99.90;;;;;;5068623;28;19912;-73
2023/01/06 01:49:42;;;;;;;;;;;9.60;99.90;;;;;;5066428;28;19916;-73
2023/01/06 01:52:08;;;;;;;;;;;9.60;99.90;;;;;;5066497;28;19952;-73
2023/01/06 01:54:35;;;;;;;;;;;9.60;99.90;;;;;;5066561;28;19946;-73
2023/01/06 01:57:04;;;;;;;;;;;9.60;99.90;;;;;;5066485;28;20614;-73
2023/01/06 01:59:31;;;;;;;;;;;9.50;99.90;;;;;;5066218;28;19951;-73
2023/01/06 02:01:56;;;;;;;;;;;9.50;99.90;;;;;;5064821;28;19908;-73
2023/01/06 02:04:24;;;;;;;;;;;9.50;99.90;;;;;;5067266;28;19962;-72
2023/01/06 02:06:49;;;;;;;;;;;9.50;99.90;;;;;;5069878;28;19912;-72
2023/01/06 02:09:18;;;;;;;;;;;9.50;99.90;;;;;;5079857;28;19912;-73
2023/01/06 02:11:43;;;;;;;;;;;9.50;99.90;;;;;;5088382;28;19924;-72
2023/01/06 02:14:08;;;;;;;;;;;9.50;99.90;;;;;;5089235;28;19919;-72
2023/01/06 02:16:53;;;;;;;;;;;9.50;99.90;;;;;;5076689;28;19924;-73
2023/01/06 02:19:37;;;;;;;;;;;9.50;99.90;;;;;;5070121;28;19966;-74
2023/01/06 02:22:08;;;;;;;;;;;9.50;99.90;;;;;;5069586;28;19912;-73
2023/01/06 02:24:46;;;;;;;;;;;9.50;99.90;;;;;;5069679;28;19920;-73
2023/01/06 02:27:11;;;;;;;;;;;9.50;99.90;;;;;;5059621;28;20001;-73
2023/01/06 02:29:37;;;;;;;;;;;9.50;99.90;;;;;;5068766;28;19994;-73
2023/01/06 02:32:21;;;;;;;;;;;9.50;99.90;;;;;;5069361;28;19919;-73
2023/01/06 02:34:46;;;;;;;;;;;9.50;99.90;;;;;;5069334;28;20247;-73
2023/01/06 02:37:31;;;;;;;;;;;9.50;99.90;;;;;;5069441;28;19927;-73
2023/01/06 02:40:15;;;;;;;;;;;9.50;99.90;;;;;;5069333;28;19967;-73
2023/01/06 02:43:03;;;;;;;;;;;9.50;99.90;;;;;;5069639;28;19912;-73
2023/01/06 02:45:41;;;;;;;;;;;9.50;99.90;;;;;;5063764;28;20811;-73
2023/01/06 02:48:06;;;;;;;;;;;9.50;99.90;;;;;;5069726;28;20575;-72
2023/01/06 02:50:51;;;;;;;;;;;9.50;99.90;;;;;;5069272;28;20031;-73
2023/01/06 02:53:20;;;;;;;;;;;9.50;99.90;;;;;;5069788;28;19912;-73
2023/01/06 02:55:47;;;;;;;;;;;9.50;99.90;;;;;;5069729;28;19966;-73
2023/01/06 02:58:15;;;;;;;;;;;9.50;99.90;;;;;;5079694;28;19916;-72
2023/01/06 03:00:49;;;;;;;;;;;9.50;99.90;;;;;;5077807;28;20404;-73
2023/01/06 03:03:17;;;;;;;;;;;9.50;99.90;;;;;;5067556;28;19951;-73
2023/01/06 03:05:44;;;;;;;;;;;9.50;99.90;;;;;;5068455;28;19947;-73
2023/01/06 03:08:16;;;;;;;;;;;9.50;99.90;;;;;;5069900;28;20003;-73
2023/01/06 03:10:43;;;;;;;;;;;9.50;99.90;;;;;;5082144;28;19938;-73
2023/01/06 03:13:18;;;;;;;;;;;9.50;99.90;;;;;;5068869;28;19912;-72
2023/01/06 03:15:43;;;;;;;;;;;9.50;99.90;;;;;;5065965;28;20332;-73
2023/01/06 03:18:09;;;;;;;;;;;9.50;99.90;;;;;;5069119;28;19913;-73
2023/01/06 03:20:34;;;;;;;;;;;9.50;99.90;;;;;;5068421;28;19912;-73
2023/01/06 03:23:00;;;;;;;;;;;9.50;99.90;;;;;;5069126;28;19909;-73
2023/01/06 03:25:25;;;;;;;;;;;9.50;99.90;;;;;;5069137;28;19920;-73
2023/01/06 03:27:51;;;;;;;;;;;9.50;99.90;;;;;;5065989;28;20312;-73
2023/01/06 03:30:16;;;;;;;;;;;9.50;99.90;;;;;;5068394;28;19965;-73
2023/01/06 03:32:45;;;;;;;;;;;9.50;99.90;;;;;;5068657;28;19912;-73
2023/01/06 03:35:34;;;;;;;;;;;9.50;99.90;;;;;;5068867;28;20434;-73
2023/01/06 03:38:06;;;;;;;;;;;9.50;99.90;;;;;;5068718;28;20033;-73
2023/01/06 03:40:34;;;;;;;;;;;9.50;99.90;;;;;;5048384;28;19973;-73
2023/01/06 03:43:11;;;;;;;;;;;9.50;99.90;;;;;;5048750;28;19912;-73
2023/01/06 03:45:52;;;;;;;;;;;9.40;99.90;;;;;;5053714;28;20663;-73
2023/01/06 03:48:17;;;;;;;;;;;9.50;99.90;;;;;;5068453;28;20419;-73
2023/01/06 03:51:00;;;;;;;;;;;9.50;99.90;;;;;;5068139;28;19916;-73
2023/01/06 03:53:29;;;;;;;;;;;9.50;99.90;;;;;;5067111;28;19999;-73
2023/01/06 03:55:59;;;;;;;;;;;9.50;99.90;;;;;;5066726;28;19916;-73
2023/01/06 03:58:26;;;;;;;;;;;9.50;99.90;;;;;;5068351;28;19920;-73
2023/01/06 04:00:52;;;;;;;;;;;9.50;99.90;;;;;;5067851;28;20278;-73
2023/01/06 04:03:22;;;;;;;;;;;9.50;99.90;;;;;;5068337;28;19912;-73
2023/01/06 04:05:47;;;;;;;;;;;9.40;99.90;;;;;;5067701;28;19913;-73
2023/01/06 04:08:13;;;;;;;;;;;9.40;99.90;;;;;;5069009;28;20427;-73
2023/01/06 04:10:38;;;;;;;;;;;9.50;99.90;;;;;;5087471;28;19912;-73
2023/01/06 04:13:03;;;;;;;;;;;9.50;99.90;;;;;;5087893;28;19916;-72
2023/01/06 04:15:29;;;;;;;;;;;9.50;99.90;;;;;;5083933;28;19916;-73
2023/01/06 04:17:55;;;;;;;;;;;9.40;99.90;;;;;;5062628;28;19996;-73
2023/01/06 04:20:22;;;;;;;;;;;9.40;99.90;;;;;;5057638;28;19980;-73
2023/01/06 04:22:47;;;;;;;;;;;9.40;99.90;;;;;;5063828;28;19913;-72
2023/01/06 04:25:13;;;;;;;;;;;9.40;99.90;;;;;;5066593;28;19916;-72
2023/01/06 04:27:38;;;;;;;;;;;9.40;99.90;;;;;;5077857;28;19919;-73
2023/01/06 04:30:04;;;;;;;;;;;9.40;99.90;;;;;;5087512;28;20471;-73
2023/01/06 04:32:30;;;;;;;;;;;9.40;99.90;;;;;;5087673;28;19970;-73
2023/01/06 04:34:55;;;;;;;;;;;9.40;99.90;;;;;;5088231;28;19912;-72
2023/01/06 04:37:21;;;;;;;;;;;9.40;99.90;;;;;;5086841;28;20541;-73
2023/01/06 04:39:46;;;;;;;;;;;9.40;99.90;;;;;;5072814;28;20019;-72
2023/01/06 04:42:12;;;;;;;;;;;9.40;99.90;;;;;;5066433;28;20000;-72
2023/01/06 04:44:37;;;;;;;;;;;9.40;99.90;;;;;;5069621;28;19913;-73
2023/01/06 04:47:02;;;;;;;;;;;9.40;99.90;;;;;;5067240;28;19916;-72
2023/01/06 04:49:28;;;;;;;;;;;9.40;99.90;;;;;;5067393;28;20261;-72
2023/01/06 04:51:53;;;;;;;;;;;9.40;99.90;;;;;;5067348;28;20284;-72
2023/01/06 04:54:19;;;;;;;;;;;9.40;99.90;;;;;;5067502;28;19913;-72
2023/01/06 04:56:45;;;;;;;;;;;9.40;99.90;;;;;;5066856;28;19913;-72
2023/01/06 04:59:10;;;;;;;;;;;9.40;99.90;;;;;;5067246;28;19969;-72
2023/01/06 05:01:37;;;;;;;;;;;9.40;99.90;;;;;;5066850;28;20293;-73
2023/01/06 05:04:04;;;;;;;;;;;9.40;99.90;;;;;;5067277;28;20003;-73
2023/01/06 05:06:30;;;;;;;;;;;9.40;99.90;;;;;;5066964;28;19954;-73
2023/01/06 05:08:55;;;;;;;;;;;9.40;99.90;;;;;;5065947;28;20500;-72
2023/01/06 05:11:22;;;;;;;;;;;9.40;99.90;;;;;;5074316;28;19969;-72
2023/01/06 05:13:47;;;;;;;;;;;9.40;99.90;;;;;;5085578;28;19920;-73
2023/01/06 05:16:18;;;;;;;;;;;9.40;99.90;;;;;;5070209;28;19920;-73
2023/01/06 05:18:44;;;;;;;;;;;9.40;99.90;;;;;;5065509;28;19921;-72
2023/01/06 05:21:09;;;;;;;;;;;9.40;99.90;;;;;;5066607;28;19916;-72
2023/01/06 05:23:36;;;;;;;;;;;9.40;99.90;;;;;;5067062;28;20346;-72
2023/01/06 05:26:01;;;;;;;;;;;9.40;99.90;;;;;;5066391;28;19917;-73
2023/01/06 05:28:28;;;;;;;;;;;9.40;99.90;;;;;;5066121;28;19912;-72
2023/01/06 05:30:57;;;;;;;;;;;9.40;99.90;;;;;;5065674;28;19956;-72
2023/01/06 05:33:22;;;;;;;;;;;9.40;99.90;;;;;;5066095;28;20439;-72
2023/01/06 05:35:48;;;;;;;;;;;9.40;99.90;;;;;;5065664;28;19913;-73
2023/01/06 05:38:13;;;;;;;;;;;9.40;99.90;;;;;;5066463;28;20003;-72
2023/01/06 05:40:39;;;;;;;;;;;9.40;99.90;;;;;;5067762;28;19966;-73
2023/01/06 05:43:04;;;;;;;;;;;9.40;99.90;;;;;;5086802;28;20609;-72
2023/01/06 05:45:30;;;;;;;;;;;9.40;99.90;;;;;;5082804;28;19909;-73
2023/01/06 05:47:56;;;;;;;;;;;9.40;99.90;;;;;;5066919;28;19912;-72
2023/01/06 05:50:22;;;;;;;;;;;9.40;99.90;;;;;;5066252;28;19918;-72
2023/01/06 05:52:47;;;;;;;;;;;9.40;99.90;;;;;;5066844;28;19991;-72
2023/01/06 05:55:13;;;;;;;;;;;9.40;99.90;;;;;;5066354;28;19917;-72
2023/01/06 05:57:38;;;;;;;;;;;9.40;99.90;;;;;;5066373;28;19963;-73
2023/01/06 06:00:04;;;;;;;;;;;9.40;99.90;;;;;;5066161;28;19920;-72
2023/01/06 06:02:30;;;;;;;;;;;9.40;99.90;;;;;;5066521;28;19913;-73
2023/01/06 06:04:55;;;;;;;;;;;9.40;99.90;;;;;;5066638;28;19912;-73
2023/01/06 06:07:21;;;;;;;;;;;9.40;99.90;;;;;;5066293;28;19919;-73
2023/01/06 06:09:46;;;;;;;;;;;9.40;99.90;;;;;;5066386;28;19912;-72
2023/01/06 06:12:12;;;;;;;;;;;9.40;99.90;;;;;;5080576;28;20007;-72
2023/01/06 06:14:37;;;;;;;;;;;9.40;99.90;;;;;;5083887;28;19927;-72
2023/01/06 06:17:03;;;;;;;;;;;9.40;99.90;;;;;;5060733;28;19920;-72
2023/01/06 06:19:28;;;;;;;;;;;9.40;99.90;;;;;;5066066;28;19919;-72
2023/01/06 06:21:54;;;;;;;;;;;9.40;99.90;;;;;;5066088;28;20623;-73
2023/01/06 06:24:19;;;;;;;;;;;9.40;99.90;;;;;;5065039;28;19908;-72
2023/01/06 06:26:45;;;;;;;;;;;9.40;99.90;;;;;;5065457;28;19947;-73
2023/01/06 06:29:10;;;;;;;;;;;9.40;99.90;;;;;;5064715;28;19951;-73
2023/01/06 06:31:36;;;;;;;;;;;9.40;99.90;;;;;;5065915;28;19919;-72
2023/01/06 06:34:02;;;;;;;;;;;9.40;99.90;;;;;;5066349;28;19912;-73
2023/01/06 06:36:28;;;;;;;;;;;9.40;99.90;;;;;;5066058;28;19916;-72
2023/01/06 06:38:53;;;;;;;;;;;9.40;99.90;;;;;;5064926;28;19920;-73
2023/01/06 06:41:19;;;;;;;;;;;9.40;99.90;;;;;;5073066;28;20408;-72
2023/01/06 06:43:46;;;;;;;;;;;9.40;99.90;;;;;;5086881;28;19908;-73
2023/01/06 06:46:12;;;;;;;;;;;9.40;99.90;;;;;;5076470;28;19920;-72
2023/01/06 06:48:37;;;;;;;;;;;9.40;99.90;;;;;;5064941;28;19912;-73
2023/01/06 06:51:05;;;;;;;;;;;9.40;99.90;;;;;;5066064;28;19915;-73
2023/01/06 06:53:31;;;;;;;;;;;9.40;99.90;;;;;;5069826;28;19919;-73
2023/01/06 06:55:57;;;;;;;;;;;9.40;99.90;;;;;;5069150;28;19942;-73
2023/01/06 06:58:22;;;;;;;;;;;9.40;99.90;;;;;;5069844;28;19912;-73
2023/01/06 07:00:48;;;;;;;;;;;9.40;99.90;;;;;;5069401;28;19912;-73
2023/01/06 07:03:13;;;;;;;;;;;9.40;99.90;;;;;;5068287;28;20606;-72
2023/01/06 07:05:40;;;;;;;;;;;9.40;99.90;;;;;;5069424;28;19920;-72
2023/01/06 07:08:07;;;;;;;;;;;9.40;99.90;;;;;;5069449;28;19913;-72
2023/01/06 07:10:32;;;;;;;;;;;9.40;99.90;;;;;;5069351;28;19944;-72
2023/01/06 07:12:58;;;;;;;;;;;9.40;99.90;;;;;;5073681;28;19955;-72
2023/01/06 07:15:23;;;;;;;;;;;9.40;99.90;;;;;;5064410;28;19955;-73
2023/01/06 07:17:49;;;;;;;;;;;9.40;99.90;;;;;;5069016;28;19938;-72
2023/01/06 07:20:14;;;;;;;;;;;9.40;99.90;;;;;;5067178;28;19935;-73
2023/01/06 07:22:40;;;;;;;;;;;9.40;99.90;;;;;;5069093;28;19954;-73
2023/01/06 07:25:06;;;;;;;;;;;9.40;99.90;;;;;;5069233;28;19919;-73
2023/01/06 07:27:32;;;;;;;;;;;9.40;99.90;;;;;;5068986;28;19912;-72
2023/01/06 07:29:57;;;;;;;;;;;9.40;99.90;;;;;;5068861;28;19919;-72
2023/01/06 07:32:23;;;;;;;;;;;9.40;99.90;;;;;;5068853;28;19954;-72
2023/01/06 07:34:48;;;;;;;;;;;9.40;99.90;;;;;;5068929;28;20022;-73
2023/01/06 07:37:14;;;;;;;;;;;9.40;99.90;;;;;;5068552;28;19982;-73
2023/01/06 07:39:39;;;;;;;;;;;9.40;99.90;;;;;;5068686;28;19919;-73
2023/01/06 07:42:07;;;;;;;;;;;9.40;99.90;;;;;;5082235;28;19912;-73
2023/01/06 07:44:32;;;;;;;;;;;9.40;99.90;;;;;;5089434;28;19947;-72
2023/01/06 07:46:58;;;;;;;;;;;9.40;99.90;;;;;;5072559;28;19944;-73
2023/01/06 07:49:23;;;;;;;;;;;9.40;99.90;;;;;;5068499;28;19962;-72
2023/01/06 07:51:49;;;;;;;;;;;9.40;99.90;;;;;;5068298;28;19955;-73
2023/01/06 07:54:14;;;;;;;;;;;9.40;99.90;;;;;;5068675;28;20376;-73
2023/01/06 07:56:40;;;;;;;;;;;9.40;99.90;;;;;;5068641;28;19912;-73
2023/01/06 07:59:05;;;;;;;;;;;9.40;99.90;;;;;;5068463;28;19916;-72
2023/01/06 08:01:31;;;;;;;;;;;9.40;99.90;;;;;;5067865;28;19912;-72
2023/01/06 08:03:56;;;;;;;;;;;9.40;99.90;;;;;;5067927;28;19919;-73
2023/01/06 08:06:22;;;;;;;;;;;9.40;99.90;;;;;;5067868;28;19913;-73
2023/01/06 08:08:47;;;;;;;;;;;9.40;99.90;;;;;;5068208;28;19913;-72
2023/01/06 08:11:13;;;;;;;;;;;9.40;99.90;;;;;;5074196;28;19915;-73
2023/01/06 08:13:38;;;;;;;;;;;9.40;99.90;;;;;;5088491;28;19926;-73
2023/01/06 08:16:05;;;;;;;;;;;9.40;99.90;;;;;;5074196;28;19925;-73
2023/01/06 08:18:30;;;;;;;;;;;9.40;99.90;;;;;;5067747;28;19913;-73
2023/01/06 08:21:03;;;;;;;;;;;9.40;99.90;;;;;;5065770;28;19912;-72
2023/01/06 08:23:29;;;;;;;;;;;9.40;99.90;;;;;;5066365;28;19920;-72
2023/01/06 08:26:05;;;;;;;;;;;9.40;99.90;;;;;;5067728;28;20344;-71
2023/01/06 08:28:31;;;;;;;;;;;9.40;99.90;;;;;;5067626;28;20373;-72
2023/01/06 08:30:57;;;;;;;;;;;9.40;99.90;;;;;;5067440;28;19958;-71
2023/01/06 08:33:24;;;;;;;;;;;9.40;99.90;;;;;;5067953;28;20304;-72
2023/01/06 08:35:51;;;;;;;;;;;9.50;99.90;;;;;;5067482;28;19931;-72
2023/01/06 08:38:16;;;;;;;;;;;9.50;99.90;;;;;;5067740;28;19919;-72
2023/01/06 08:40:42;;;;;;;;;;;9.50;99.90;;;;;;5068023;28;20435;-72
2023/01/06 08:43:07;;;;;;;;;;;9.50;99.90;;;;;;5087867;28;19938;-72
2023/01/06 08:45:36;;;;;;;;;;;9.50;99.90;;;;;;5083025;28;20536;-71
2023/01/06 08:48:02;;;;;;;;;;;9.50;99.90;;;;;;5067692;28;19909;-72
2023/01/06 08:50:27;;;;;;;;;;;9.50;99.90;;;;;;5067145;28;20376;-71
2023/01/06 08:52:53;;;;;;;;;;;9.50;99.90;;;;;;5067529;28;20011;-71
2023/01/06 08:55:18;;;;;;;;;;;9.50;99.90;;;;;;5067154;28;19959;-72
2023/01/06 08:57:44;;;;;;;;;;;9.50;99.90;;;;;;5066904;28;19916;-73
2023/01/06 09:00:10;;;;;;;;;;;9.50;99.90;;;;;;5066213;28;19935;-73
2023/01/06 09:02:35;;;;;;;;;;;9.50;99.90;;;;;;5066548;28;19936;-72
2023/01/06 09:05:01;;;;;;;;;;;9.50;99.90;;;;;;5066842;28;20538;-72
2023/01/06 09:07:26;;;;;;;;;;;9.50;99.90;;;;;;5066700;28;19912;-73
2023/01/06 09:09:52;;;;;;;;;;;9.50;99.90;;;;;;5067178;28;19912;-72
2023/01/06 09:12:17;;;;;;;;;;;9.50;99.90;;;;;;5082457;28;19965;-72
2023/01/06 09:14:43;;;;;;;;;;;9.50;99.90;;;;;;5073677;28;19916;-72
2023/01/06 09:17:08;;;;;;;;;;;9.50;99.90;;;;;;5063519;28;19938;-73
2023/01/06 09:19:34;;;;;;;;;;;9.50;99.90;;;;;;5066990;28;19944;-72
2023/01/06 09:21:59;;;;;;;;;;;9.60;99.90;;;;;;5066773;28;19954;-72
2023/01/06 09:24:24;;;;;;;;;;;9.60;99.90;;;;;;5066890;28;19995;-72
2023/01/06 09:26:50;;;;;;;;;;;9.60;99.90;;;;;;5066866;28;19962;-72
2023/01/06 09:29:15;;;;;;;;;;;9.60;99.90;;;;;;5066869;28;19912;-72
2023/01/06 09:31:41;;;;;;;;;;;9.50;99.90;;;;;;5066498;28;19912;-72
2023/01/06 09:34:06;;;;;;;;;;;9.60;99.90;;;;;;5066848;28;19913;-71
2023/01/06 09:36:33;;;;;;;;;;;9.60;99.90;;;;;;5065042;28;20023;-72
2023/01/06 09:38:59;;;;;;;;;;;9.60;99.90;;;;;;5066726;28;20015;-72
2023/01/06 09:41:43;;;;;;;;;;;9.60;99.90;;;;;;5074512;28;19912;-72
2023/01/06 09:44:17;;;;;;;;;;;9.60;99.90;;;;;;5085912;28;20604;-72
2023/01/06 09:46:45;;;;;;;;;;;9.60;99.90;;;;;;5072654;28;20001;-72
2023/01/06 09:49:36;;;;;;;;;;;9.70;99.90;;;;;;5066899;28;19912;-72
2023/01/06 09:52:22;;;;;;;;;;;9.70;99.90;;;;;;5066759;28;20270;-72
2023/01/06 09:54:56;;;;;;;;;;;9.70;99.90;;;;;;5066770;28;19913;-72
2023/01/06 09:57:31;;;;;;;;;;;9.70;99.90;;;;;;5066386;28;19923;-72
2023/01/06 10:00:01;;;;;;;;;;;9.70;99.90;;;;;;5066243;28;19919;-72
2023/01/06 10:02:36;;;;;;;;;;;9.70;99.90;;;;;;5066428;28;19934;-72
2023/01/06 10:05:02;;;;;;;;;;;9.70;99.90;;;;;;5066784;28;19966;-72
2023/01/06 10:07:35;;;;;;;;;;;9.70;99.90;;;;;;5066615;28;19913;-72
2023/01/06 10:10:12;;;;;;;;;;;9.70;99.90;;;;;;5066312;28;19912;-71
2023/01/06 10:12:41;;;;;;;;;;;9.70;99.90;;;;;;5084843;28;19918;-72
2023/01/06 10:15:20;;;;;;;;;;;9.70;99.90;;;;;;5076334;28;19929;-71
2023/01/06 10:18:01;;;;;;;;;;;9.70;99.90;;;;;;5063339;28;19994;-72
2023/01/06 10:20:29;;;;;;;;;;;9.70;99.90;;;;;;5054768;28;21812;-73
2023/01/06 10:22:58;;;;;;;;;;;9.70;99.90;;;;;;5062175;28;19951;-71
2023/01/06 10:25:49;;;;;;;;;;;9.70;99.90;;;;;;5067162;28;19909;-72
2023/01/06 10:28:17;;;;;;;;;;;9.70;99.90;;;;;;5065696;28;19931;-71
2023/01/06 10:30:50;;;;;;;;;;;9.70;99.90;;;;;;5069469;28;19913;-73
2023/01/06 10:33:19;;;;;;;;;;;9.80;99.90;;;;;;5069880;28;19912;-72
2023/01/06 10:35:44;;;;;;;;;;;9.70;99.90;;;;;;5068181;28;19912;-72
2023/01/06 10:38:11;;;;;;;;;;;9.80;99.90;;;;;;5068755;28;19923;-72
2023/01/06 10:40:36;;;;;;;;;;;9.80;99.90;;;;;;5066910;28;19920;-73
2023/01/06 10:43:04;;;;;;;;;;;9.80;99.90;;;;;;5072121;28;19973;-72
2023/01/06 10:45:43;;;;;;;;;;;9.80;99.90;;;;;;5070664;28;19961;-72
2023/01/06 10:48:19;;;;;;;;;;;9.80;99.90;;;;;;5067299;28;20003;-72
2023/01/06 10:50:44;;;;;;;;;;;9.80;99.90;;;;;;5066263;28;20607;-72
2023/01/06 10:53:13;;;;;;;;;;;9.80;99.90;;;;;;5068599;28;19908;-72
2023/01/06 10:55:39;;;;;;;;;;;9.70;99.90;;;;;;5068800;28;19962;-72
2023/01/06 10:58:23;;;;;;;;;;;9.80;99.90;;;;;;5068528;28;19948;-72
2023/01/06 11:00:54;;;;;;;;;;;9.80;99.90;;;;;;5067870;28;19924;-72
2023/01/06 11:03:20;;;;;;;;;;;9.80;99.90;;;;;;5068094;28;19962;-72
2023/01/06 11:05:45;;;;;;;;;;;9.80;99.90;;;;;;5067342;28;19912;-72
2023/01/06 11:08:48;;;;;;;;;;;9.90;99.90;;;;;;5073727;28;20689;-73
2023/01/06 11:11:15;;;;;;;;;;;9.90;99.90;;;;;;5069170;28;19916;-72
2023/01/06 11:13:44;;;;;;;;;;;9.90;99.90;;;;;;5068034;28;20425;-72
2023/01/06 11:16:18;;;;;;;;;;;9.90;99.90;;;;;;5067399;28;19912;-71
2023/01/06 11:18:49;;;;;;;;;;;9.90;99.90;;;;;;5067007;28;20630;-72
2023/01/06 11:21:17;;;;;;;;;;;10.00;99.90;;;;;;5066127;28;19919;-72
2023/01/06 11:23:45;;;;;;;;;;;10.00;99.90;;;;;;5066552;28;20404;-72
2023/01/06 11:26:11;;;;;;;;;;;10.00;99.90;;;;;;5067027;28;19951;-72
2023/01/06 11:28:37;;;;;;;;;;;10.00;99.90;;;;;;5065944;28;19944;-72
2023/01/06 11:31:04;;;;;;;;;;;10.10;99.90;;;;;;5065577;28;19993;-72
2023/01/06 11:33:30;;;;;;;;;;;10.00;99.90;;;;;;5066200;28;20519;-73
2023/01/06 11:35:56;;;;;;;;;;;10.10;99.90;;;;;;5065915;28;19962;-73
2023/01/06 11:38:22;;;;;;;;;;;10.10;99.90;;;;;;5066226;28;20377;-72
2023/01/06 11:40:49;;;;;;;;;;;10.20;99.90;;;;;;5066391;28;19912;-73
2023/01/06 11:43:16;;;;;;;;;;;10.20;99.90;;;;;;5067194;28;20630;-72
2023/01/06 11:45:45;;;;;;;;;;;10.20;99.90;;;;;;5067256;28;20404;-73
2023/01/06 11:48:18;;;;;;;;;;;10.20;99.90;;;;;;5066387;28;19916;-73
2023/01/06 11:50:55;;;;;;;;;;;10.20;99.90;;;;;;5066483;28;20454;-73
2023/01/06 11:53:23;;;;;;;;;;;10.30;99.90;;;;;;5066957;28;19909;-72
2023/01/06 11:55:56;;;;;;;;;;;10.30;99.90;;;;;;5067061;28;20827;-72
2023/01/06 11:58:27;;;;;;;;;;;10.30;99.90;;;;;;5067140;28;19943;-72
2023/01/06 12:00:58;;;;;;;;;;;10.40;99.90;;;;;;5064911;28;19913;-72
2023/01/06 12:03:30;;;;;;;;;;;10.50;99.90;;;;;;5065447;28;19916;-72
2023/01/06 12:06:05;;;;;;;;;;;10.50;99.90;;;;;;5066936;28;19913;-72
2023/01/06 12:08:36;;;;;;;;;;;10.50;99.90;;;;;;5067403;28;20453;-73
2023/01/06 12:11:09;;;;;;;;;;;10.50;99.90;;;;;;5047111;28;19912;-73
2023/01/06 12:13:35;;;;;;;;;;;10.50;99.90;;;;;;5047431;28;19920;-73
2023/01/06 12:16:22;;;;;;;;;;;10.60;99.90;;;;;;5059067;28;19939;-73
2023/01/06 12:18:48;;;;;;;;;;;10.60;99.90;;;;;;5073774;28;19939;-73
2023/01/06 12:21:17;;;;;;;;;;;10.60;99.90;;;;;;5086077;28;19920;-72
2023/01/06 12:23:43;;;;;;;;;;;10.70;99.90;;;;;;5086748;28;19981;-72
2023/01/06 12:26:14;;;;;;;;;;;10.70;99.90;;;;;;5082006;28;19986;-73
2023/01/06 12:28:41;;;;;;;;;;;10.70;99.90;;;;;;5065716;28;19966;-73
2023/01/06 12:31:23;;;;;;;;;;;10.70;99.90;;;;;;5065121;28;19917;-72
2023/01/06 12:34:08;;;;;;;;;;;10.80;99.90;;;;;;5066406;28;19909;-73
2023/01/06 12:36:34;;;;;;;;;;;10.80;99.90;;;;;;5066216;28;19921;-73
2023/01/06 12:39:01;;;;;;;;;;;10.80;99.90;;;;;;5066511;28;19908;-72
2023/01/06 12:41:33;;;;;;;;;;;10.80;99.90;;;;;;5066130;28;19921;-72
2023/01/06 12:44:02;;;;;;;;;;;10.80;99.90;;;;;;5062294;28;19966;-72
2023/01/06 12:46:36;;;;;;;;;;;10.90;99.90;;;;;;5062942;28;19912;-72
2023/01/06 12:49:03;;;;;;;;;;;10.90;99.90;;;;;;5074844;28;20432;-72
2023/01/06 12:51:32;;;;;;;;;;;10.90;99.90;;;;;;5085181;28;19912;-73
2023/01/06 12:54:01;;;;;;;;;;;10.80;99.90;;;;;;5085534;28;20421;-72
2023/01/06 12:56:26;;;;;;;;;;;10.90;99.90;;;;;;5081640;28;19916;-73
2023/01/06 12:58:52;;;;;;;;;;;10.90;99.90;;;;;;5066574;28;19908;-73
2023/01/06 13:01:23;;;;;;;;;;;10.90;99.90;;;;;;5066015;28;19938;-73
2023/01/06 13:03:58;;;;;;;;;;;10.90;99.90;;;;;;5066311;28;19912;-72
2023/01/06 13:06:26;;;;;;;;;;;10.90;99.90;;;;;;5066347;28;19913;-73
2023/01/06 13:09:04;;;;;;;;;;;11.00;99.90;;;;;;5066217;28;19913;-72
2023/01/06 13:11:38;;;;;;;;;;;11.00;99.90;;;;;;5065542;28;19912;-73
2023/01/06 13:14:03;;;;;;;;;;;11.00;99.90;;;;;;5066358;28;20339;-72
2023/01/06 13:16:35;;;;;;;;;;;11.00;99.90;;;;;;5060485;28;19961;-73
2023/01/06 13:19:07;;;;;;;;;;;11.00;99.90;;;;;;5073408;28;19919;-73
2023/01/06 13:21:34;;;;;;;;;;;11.00;99.90;;;;;;5084951;28;20303;-72
2023/01/06 13:24:18;;;;;;;;;;;11.00;99.90;;;;;;5086419;28;20333;-73
2023/01/06 13:27:02;;;;;;;;;;;10.90;99.90;;;;;;5078675;28;19992;-73
2023/01/06 13:29:48;;;;;;;;;;;11.00;99.90;;;;;;5066207;28;20262;-72
2023/01/06 13:32:29;;;;;;;;;;;11.00;99.90;;;;;;5065275;28;19968;-73
2023/01/06 13:34:58;;;;;;;;;;;11.00;99.90;;;;;;5066914;28;19908;-72
2023/01/06 13:37:23;;;;;;;;;;;11.00;99.90;;;;;;5066569;28;19917;-73
2023/01/06 13:39:53;;;;;;;;;;;11.00;99.90;;;;;;5066369;28;19958;-72
2023/01/06 13:42:21;;;;;;;;;;;11.10;99.90;;;;;;5066664;28;20003;-73
2023/01/06 13:44:48;;;;;;;;;;;11.10;99.90;;;;;;5066700;28;19966;-72
2023/01/06 13:47:15;;;;;;;;;;;11.00;99.90;;;;;;5066265;28;19913;-73
2023/01/06 13:49:41;;;;;;;;;;;11.00;99.90;;;;;;5080837;28;19918;-72
2023/01/06 13:52:34;;;;;;;;;;;11.00;99.90;;;;;;5086372;28;20363;-73
2023/01/06 13:55:06;;;;;;;;;;;11.00;99.90;;;;;;5085785;28;19916;-73
2023/01/06 13:57:33;;;;;;;;;;;11.00;99.90;;;;;;5072524;28;20457;-72
2023/01/06 13:59:58;;;;;;;;;;;11.00;99.90;;;;;;5065775;28;19912;-73
2023/01/06 14:02:33;;;;;;;;;;;11.00;99.90;;;;;;5069675;28;19935;-73
2023/01/06 14:05:02;;;;;;;;;;;11.00;99.90;;;;;;5069476;28;19919;-72
2023/01/06 14:07:35;;;;;;;;;;;11.00;99.90;;;;;;5070041;28;19917;-73
2023/01/06 14:10:01;;;;;;;;;;;11.00;99.90;;;;;;5068820;28;19908;-73
2023/01/06 14:12:28;;;;;;;;;;;10.90;99.90;;;;;;5070389;28;20276;-73
2023/01/06 14:15:01;;;;;;;;;;;10.90;99.90;;;;;;5070025;28;19964;-73
2023/01/06 14:17:36;;;;;;;;;;;10.90;99.90;;;;;;5068293;28;19924;-73
2023/01/06 14:20:02;;;;;;;;;;;10.90;99.90;;;;;;5087463;28;19912;-73
2023/01/06 14:22:28;;;;;;;;;;;10.90;99.90;;;;;;5090106;28;19939;-73
2023/01/06 14:24:58;;;;;;;;;;;10.90;99.90;;;;;;5090473;28;20293;-72
2023/01/06 14:27:42;;;;;;;;;;;10.90;99.90;;;;;;5079479;28;19920;-73
2023/01/06 14:30:30;;;;;;;;;;;10.90;99.90;;;;;;5069035;28;20354;-73
2023/01/06 14:32:57;;;;;;;;;;;10.80;99.90;;;;;;5066993;28;19916;-73
2023/01/06 14:35:27;;;;;;;;;;;10.80;99.90;;;;;;5069076;28;19936;-73